createdAt,value
2022-11-10T00:05:12.001Z,2.96
2022-11-10T00:10:37.684Z,5.03
2022-11-10T00:16:05.326Z,5.50
2022-11-10T00:21:33.788Z,4.11
2022-11-10T00:26:59.973Z,3.44
2022-11-10T00:32:26.236Z,2.73
2022-11-10T00:37:50.748Z,2.86
2022-11-10T00:43:15.508Z,3.54
2022-11-10T00:48:42.886Z,4.33
2022-11-10T00:54:10.710Z,5.71
2022-11-10T00:59:37.703Z,5.00
2022-11-10T01:05:04.934Z,2.80
2022-11-10T01:10:29.993Z,2.76
2022-11-10T01:15:56.457Z,3.86
2022-11-10T01:21:24.339Z,3.53
2022-11-10T01:26:48.782Z,4.29
2022-11-10T01:32:13.283Z,8.41
2022-11-10T01:37:40.365Z,5.48
2022-11-10T01:43:02.030Z,3.74
2022-11-10T01:48:29.136Z,8.14
2022-11-10T01:53:56.799Z,6.70
2022-11-10T01:59:23.464Z,4.38
2022-11-10T02:04:47.378Z,6.49
2022-11-10T02:10:14.523Z,8.65
2022-11-10T02:15:41.332Z,5.72
2022-11-10T02:21:08.510Z,6.30
2022-11-10T02:26:37.503Z,3.90
2022-11-10T02:32:01.580Z,8.15
2022-11-10T02:37:26.233Z,7.87
2022-11-10T02:42:52.196Z,6.32
2022-11-10T02:48:16.349Z,5.33
2022-11-10T02:53:43.375Z,6.69
2022-11-10T02:59:07.676Z,9.76
2022-11-10T03:04:32.519Z,7.53
2022-11-10T03:10:00.235Z,6.19
2022-11-10T03:15:28.178Z,5.17
2022-11-10T03:20:54.162Z,6.29
2022-11-10T03:26:19.874Z,5.25
2022-11-10T03:31:47.342Z,4.30
2022-11-10T03:37:11.155Z,4.95
2022-11-10T03:42:37.277Z,4.66
2022-11-10T03:48:01.959Z,6.26
2022-11-10T03:53:28.107Z,5.76
2022-11-10T03:58:54.622Z,3.82
2022-11-10T04:04:21.215Z,5.59
2022-11-10T04:09:47.142Z,3.64
2022-11-10T04:15:11.263Z,6.78
2022-11-10T04:20:40.039Z,5.53
2022-11-10T04:26:03.806Z,4.15
2022-11-10T04:31:31.185Z,6.12
2022-11-10T04:36:57.123Z,6.08
2022-11-10T04:42:21.705Z,7.80
2022-11-10T04:47:45.141Z,4.41
2022-11-10T04:53:12.411Z,6.91
2022-11-10T04:58:38.662Z,4.46
2022-11-10T05:04:02.773Z,7.00
2022-11-10T05:09:26.080Z,4.97
2022-11-10T05:14:52.735Z,6.59
2022-11-10T05:20:17.823Z,5.51
2022-11-10T05:25:41.425Z,5.50
2022-11-10T05:31:14.942Z,4.62
2022-11-10T05:36:39.614Z,4.81
2022-11-10T05:42:06.860Z,5.58
2022-11-10T05:47:32.092Z,5.70
2022-11-10T05:53:02.223Z,8.28
2022-11-10T05:58:28.390Z,6.12
2022-11-10T06:03:49.820Z,6.24
2022-11-10T06:09:14.350Z,4.79
2022-11-10T06:14:36.084Z,8.21
2022-11-10T06:20:01.447Z,7.46
2022-11-10T06:25:25.956Z,5.94
2022-11-10T06:30:47.601Z,6.38
2022-11-10T06:36:14.540Z,8.32
2022-11-10T06:41:40.426Z,6.85
2022-11-10T06:47:08.554Z,5.90
2022-11-10T06:52:30.668Z,7.45
2022-11-10T06:57:56.598Z,7.60
2022-11-10T07:03:23.540Z,6.19
2022-11-10T07:08:49.632Z,6.99
2022-11-10T07:14:12.489Z,6.33
2022-11-10T07:19:39.960Z,5.81
2022-11-10T07:25:01.447Z,5.95
2022-11-10T07:30:26.669Z,8.41
2022-11-10T07:35:48.448Z,9.79
2022-11-10T07:41:12.841Z,8.80
2022-11-10T07:46:39.441Z,8.41
2022-11-10T07:52:02.824Z,8.80
2022-11-10T07:57:27.118Z,7.86
2022-11-10T08:02:52.239Z,7.65
2022-11-10T08:08:20.159Z,8.48
2022-11-10T08:13:44.290Z,7.63
2022-11-10T08:19:08.223Z,14.14
2022-11-10T08:24:32.658Z,9.78
2022-11-10T08:30:00.935Z,5.92
2022-11-10T08:35:28.061Z,8.27
2022-11-10T08:40:53.684Z,9.24
2022-11-10T08:46:18.961Z,7.62
2022-11-10T08:51:44.284Z,8.74
2022-11-10T08:57:09.650Z,5.87
2022-11-10T09:02:33.838Z,5.72
2022-11-10T09:07:55.608Z,7.45
2022-11-10T09:13:26.080Z,6.37
2022-11-10T09:18:49.647Z,5.83
2022-11-10T09:24:13.524Z,4.71
2022-11-10T09:29:41.709Z,4.97
2022-11-10T09:35:08.385Z,5.29
2022-11-10T09:40:32.836Z,4.78
2022-11-10T09:46:04.494Z,3.75
2022-11-10T09:51:33.468Z,4.36
2022-11-10T09:57:00.872Z,4.16
2022-11-10T10:02:28.296Z,5.75
2022-11-10T10:07:53.676Z,2.90
2022-11-10T10:13:20.469Z,6.20
2022-11-10T10:18:46.840Z,3.39
2022-11-10T10:24:20.128Z,4.80
2022-11-10T10:29:39.097Z,5.50
2022-11-10T10:35:06.938Z,4.96
2022-11-10T10:40:34.656Z,4.67
2022-11-10T10:46:03.062Z,4.57
2022-11-10T10:51:27.003Z,5.38
2022-11-10T10:56:53.692Z,6.01
2022-11-10T11:02:31.210Z,2.70
2022-11-10T11:07:59.343Z,4.03
2022-11-10T11:13:25.427Z,4.31
2022-11-10T11:18:50.889Z,4.47
2022-11-10T11:24:13.413Z,2.84
2022-11-10T11:29:41.181Z,4.66
2022-11-10T11:35:13.209Z,6.09
2022-11-10T11:40:39.731Z,4.03
2022-11-10T11:46:10.603Z,4.58
2022-11-10T11:51:36.779Z,5.56
2022-11-10T11:57:03.918Z,3.57
2022-11-10T12:02:33.355Z,3.69
2022-11-10T12:08:08.410Z,3.97
2022-11-10T12:13:38.342Z,4.99
2022-11-10T12:19:09.701Z,3.09
2022-11-10T12:24:39.248Z,4.28
2022-11-10T12:30:16.205Z,3.69
2022-11-10T12:35:41.773Z,2.80
2022-11-10T12:41:03.177Z,3.52
2022-11-10T12:46:29.650Z,3.56
2022-11-10T12:51:56.380Z,3.37
2022-11-10T12:57:23.075Z,3.55
2022-11-10T13:02:47.919Z,1.18
2022-11-10T13:08:14.101Z,3.46
2022-11-10T13:13:41.338Z,2.87
2022-11-10T13:19:11.464Z,3.49
2022-11-10T13:24:59.489Z,3.33
2022-11-10T13:30:54.781Z,3.04
2022-11-10T13:36:21.707Z,4.30
2022-11-10T13:41:57.285Z,6.21
2022-11-10T13:47:30.905Z,2.68
2022-11-10T13:53:07.507Z,3.83
2022-11-10T13:58:33.999Z,4.00
2022-11-10T14:03:56.536Z,3.33
2022-11-10T14:09:19.433Z,3.94
2022-11-10T14:14:41.987Z,2.35
2022-11-10T14:20:09.333Z,4.32
2022-11-10T14:25:42.111Z,4.97
2022-11-10T14:31:06.647Z,4.07
2022-11-10T14:36:47.068Z,3.65
2022-11-10T14:42:14.314Z,3.24
2022-11-10T14:47:39.498Z,1.45
2022-11-10T14:53:06.095Z,4.85
2022-11-10T14:58:28.865Z,2.17
2022-11-10T15:03:55.815Z,1.88
2022-11-10T15:09:21.932Z,4.74
2022-11-10T15:14:46.752Z,5.51
2022-11-10T15:20:15.709Z,5.65
2022-11-10T15:26:02.429Z,4.39
2022-11-10T15:31:34.379Z,6.59
2022-11-10T15:36:59.727Z,6.51
2022-11-10T15:42:40.552Z,4.59
2022-11-10T15:48:08.008Z,3.28
2022-11-10T15:53:30.382Z,4.95
2022-11-10T15:59:01.629Z,3.18
2022-11-10T16:04:23.526Z,3.86
2022-11-10T16:09:51.172Z,3.70
2022-11-10T16:15:17.653Z,3.75
2022-11-10T16:20:42.145Z,2.99
2022-11-10T16:26:03.539Z,4.46
2022-11-10T16:31:28.094Z,5.76
2022-11-10T16:36:51.522Z,5.03
2022-11-10T16:42:14.449Z,5.82
2022-11-10T16:47:42.455Z,11.07
2022-11-10T16:53:08.146Z,8.34
2022-11-10T16:58:33.689Z,10.43
2022-11-10T17:03:58.590Z,7.18
2022-11-10T17:09:26.384Z,8.39
2022-11-10T17:14:51.496Z,8.41
2022-11-10T17:20:14.457Z,7.72
2022-11-10T17:25:37.735Z,8.50
2022-11-10T17:31:00.767Z,6.11
2022-11-10T17:36:22.224Z,8.00
2022-11-10T17:41:48.372Z,8.43
2022-11-10T17:47:14.521Z,10.76
2022-11-10T17:52:41.684Z,13.39
2022-11-10T17:58:02.959Z,9.19
2022-11-10T18:03:24.856Z,10.12
2022-11-10T18:08:50.316Z,7.43
2022-11-10T18:14:11.511Z,9.14
2022-11-10T18:19:32.777Z,8.50
2022-11-10T18:25:00.169Z,11.27
2022-11-10T18:30:24.723Z,8.83
2022-11-10T18:35:50.809Z,7.68
2022-11-10T18:41:22.378Z,7.12
2022-11-10T18:46:44.913Z,8.04
2022-11-10T18:52:12.942Z,9.80
2022-11-10T18:57:39.474Z,7.93
2022-11-10T19:03:05.317Z,8.65
2022-11-10T19:08:31.608Z,8.70
2022-11-10T19:13:57.821Z,7.32
2022-11-10T19:19:24.222Z,7.51
2022-11-10T19:25:07.665Z,6.35
2022-11-10T19:30:16.025Z,7.34
2022-11-10T19:35:43.107Z,7.06
2022-11-10T19:41:07.780Z,6.08
2022-11-10T19:46:33.117Z,6.98
2022-11-10T19:51:57.280Z,8.50
2022-11-10T19:57:21.070Z,9.77
2022-11-10T20:02:46.933Z,8.87
2022-11-10T20:08:14.193Z,14.31
2022-11-10T20:13:39.691Z,15.37
2022-11-10T20:19:06.107Z,15.97
2022-11-10T20:24:32.712Z,19.08
2022-11-10T20:30:26.094Z,13.36
2022-11-10T20:35:45.770Z,25.22
2022-11-10T20:41:12.363Z,17.57
2022-11-10T20:46:55.306Z,15.72
2022-11-10T20:51:59.455Z,10.00
2022-11-10T20:57:21.609Z,10.63
2022-11-10T21:02:45.064Z,10.45
2022-11-10T21:08:12.558Z,9.34
2022-11-10T21:13:36.761Z,9.84
2022-11-10T21:19:00.931Z,7.54
2022-11-10T21:24:27.460Z,7.69
2022-11-10T21:29:53.881Z,7.46
2022-11-10T21:35:20.961Z,7.25
2022-11-10T21:40:45.178Z,8.63
2022-11-10T21:46:13.048Z,6.46
2022-11-10T21:51:39.371Z,5.63
2022-11-10T21:57:03.520Z,5.82
2022-11-10T22:02:31.000Z,8.38
2022-11-10T22:07:55.926Z,6.56
2022-11-10T22:13:23.568Z,6.55
2022-11-10T22:18:44.645Z,6.26
2022-11-10T22:24:09.764Z,5.69
2022-11-10T22:29:37.519Z,7.81
2022-11-10T22:35:04.568Z,7.06
2022-11-10T22:40:32.512Z,5.42
2022-11-10T22:45:59.891Z,11.19
2022-11-10T22:51:25.836Z,8.10
2022-11-10T22:56:51.154Z,11.64
2022-11-10T23:02:18.367Z,10.15
2022-11-10T23:07:45.158Z,9.59
2022-11-10T23:13:13.592Z,6.70
2022-11-10T23:18:41.012Z,7.80
2022-11-10T23:24:02.535Z,7.03
2022-11-10T23:29:31.068Z,6.17
2022-11-10T23:34:55.820Z,5.87
2022-11-10T23:40:22.363Z,7.83
2022-11-10T23:46:05.742Z,7.45
2022-11-10T23:51:17.155Z,8.02
2022-11-10T23:56:43.237Z,6.91
